RYR6002 EDJA-LBSF
Flight info
| Callsign | RYR6002 |
|---|---|
| Flight time | 1h 31m |
| Altitude | 37000 |
| Route | KPT4A KPT Z999 BEMKI L607 XEBIX Z2 TUNUM Z204 GEDSO DCT MAGAM DCT VAL DCT NISVA |
| Aircraft | B738/M-SDE2E3FGHIRWXY/LB1 |
Departure
| Time | 2026-05-05 20:15 |
|---|---|
| Airport | Memmingen Allgau Airport (EDJA) |
Arrival
| Time | 2026-05-05 21:46 |
|---|---|
| Airport | Sofia Airport (LBSF) |
| Time | Latitude | Longitude | Altitude | Speed | Heading |
|---|---|---|---|---|---|
| 2026-05-05 19:54 | 47.98892 | 10.23330 | 2079 ft | 0 kts | 61° |
| 2026-05-05 20:05 | 47.98888 | 10.23327 | 2051 ft | 2 kts | 31° |
| 2026-05-05 20:05 | 47.98890 | 10.23316 | 2051 ft | 3 kts | 318° |
| 2026-05-05 20:06 | 47.98881 | 10.23327 | 2051 ft | 3 kts | 354° |
| 2026-05-05 20:06 | 47.98863 | 10.23325 | 2089 ft | 3 kts | 15° |
| 2026-05-05 20:06 | 47.98845 | 10.23315 | 2080 ft | 3 kts | 39° |
| 2026-05-05 20:06 | 47.98831 | 10.23294 | 2080 ft | 3 kts | 64° |
| 2026-05-05 20:07 | 47.98827 | 10.23277 | 2079 ft | 1 kts | 70° |
| 2026-05-05 20:07 | 47.98826 | 10.23274 | 2079 ft | 0 kts | 70° |
| 2026-05-05 20:09 | 47.98828 | 10.23285 | 2079 ft | 3 kts | 70° |
| 2026-05-05 20:09 | 47.98842 | 10.23342 | 2080 ft | 8 kts | 71° |
| 2026-05-05 20:09 | 47.98867 | 10.23450 | 2080 ft | 14 kts | 70° |
| 2026-05-05 20:09 | 47.98909 | 10.23631 | 2072 ft | 21 kts | 79° |
| 2026-05-05 20:10 | 47.98857 | 10.23755 | 2077 ft | 13 kts | 144° |
| 2026-05-05 20:10 | 47.98823 | 10.23820 | 2076 ft | 3 kts | 72° |
| 2026-05-05 20:10 | 47.98838 | 10.23847 | 2075 ft | 5 kts | 50° |
| 2026-05-05 20:10 | 47.98868 | 10.23916 | 2074 ft | 11 kts | 59° |
| 2026-05-05 20:11 | 47.98923 | 10.24057 | 2070 ft | 21 kts | 59° |
| 2026-05-05 20:11 | 47.99012 | 10.24280 | 2068 ft | 28 kts | 60° |
| 2026-05-05 20:11 | 47.99111 | 10.24529 | 2067 ft | 27 kts | 59° |
| 2026-05-05 20:11 | 47.99205 | 10.24764 | 2066 ft | 25 kts | 59° |
| 2026-05-05 20:12 | 47.99290 | 10.24984 | 2062 ft | 24 kts | 63° |
| 2026-05-05 20:12 | 47.99352 | 10.25185 | 2060 ft | 14 kts | 63° |
| 2026-05-05 20:12 | 47.99371 | 10.25198 | 2059 ft | 1 kts | 333° |
| 2026-05-05 20:12 | 47.99369 | 10.25185 | 2059 ft | 2 kts | 253° |
| 2026-05-05 20:13 | 47.99365 | 10.25170 | 2060 ft | 2 kts | 250° |
| 2026-05-05 20:13 | 47.99361 | 10.25156 | 2060 ft | 1 kts | 243° |
| 2026-05-05 20:13 | 47.99357 | 10.25146 | 2060 ft | 0 kts | 237° |
| 2026-05-05 20:14 | 47.99353 | 10.25138 | 2061 ft | 10 kts | 237° |
| 2026-05-05 20:14 | 47.99196 | 10.24747 | 2066 ft | 78 kts | 239° |
| 2026-05-05 20:14 | 47.98805 | 10.23773 | 2073 ft | 138 kts | 238° |
| 2026-05-05 20:14 | 47.98240 | 10.22376 | 2396 ft | 167 kts | 240° |
| 2026-05-05 20:15 | 47.97659 | 10.20842 | 3279 ft | 172 kts | 241° |
| 2026-05-05 20:15 | 47.97051 | 10.19276 | 3804 ft | 184 kts | 239° |
| 2026-05-05 20:15 | 47.96342 | 10.17559 | 4094 ft | 204 kts | 239° |
| 2026-05-05 20:15 | 47.95580 | 10.15725 | 4703 ft | 210 kts | 239° |
| 2026-05-05 20:16 | 47.94800 | 10.13850 | 5306 ft | 219 kts | 239° |
| 2026-05-05 20:16 | 47.93975 | 10.11871 | 5825 ft | 228 kts | 238° |
| 2026-05-05 20:16 | 47.92880 | 10.10140 | 6487 ft | 234 kts | 217° |
| 2026-05-05 20:16 | 47.91402 | 10.09103 | 7209 ft | 238 kts | 199° |
| 2026-05-05 20:17 | 47.89714 | 10.08827 | 7781 ft | 258 kts | 179° |
| 2026-05-05 20:17 | 47.87899 | 10.09268 | 8349 ft | 274 kts | 173° |
| 2026-05-05 20:17 | 47.86042 | 10.10055 | 9187 ft | 284 kts | 156° |
| 2026-05-05 20:17 | 47.84568 | 10.12078 | 10033 ft | 299 kts | 127° |
| 2026-05-05 20:18 | 47.83444 | 10.14771 | 10506 ft | 318 kts | 125° |
| 2026-05-05 20:18 | 47.82237 | 10.17679 | 10744 ft | 341 kts | 125° |
| 2026-05-05 20:18 | 47.80978 | 10.20713 | 11408 ft | 347 kts | 125° |
| 2026-05-05 20:18 | 47.79699 | 10.23783 | 12264 ft | 350 kts | 125° |
| 2026-05-05 20:19 | 47.78406 | 10.26864 | 13096 ft | 353 kts | 124° |
| 2026-05-05 20:19 | 47.77091 | 10.29976 | 13852 ft | 358 kts | 124° |
| 2026-05-05 20:19 | 47.75771 | 10.33084 | 14563 ft | 362 kts | 124° |
| 2026-05-05 20:19 | 47.74418 | 10.36258 | 15261 ft | 366 kts | 125° |
| 2026-05-05 20:20 | 47.73049 | 10.39462 | 15986 ft | 369 kts | 125° |
| 2026-05-05 20:20 | 47.71665 | 10.42694 | 16700 ft | 373 kts | 125° |
| 2026-05-05 20:20 | 47.70266 | 10.45955 | 17424 ft | 376 kts | 126° |
| 2026-05-05 20:20 | 47.68849 | 10.49252 | 18123 ft | 380 kts | 126° |
| 2026-05-05 20:21 | 47.67419 | 10.52573 | 18713 ft | 384 kts | 126° |
| 2026-05-05 20:21 | 47.65974 | 10.55927 | 19302 ft | 388 kts | 127° |
| 2026-05-05 20:21 | 47.64532 | 10.59268 | 19858 ft | 392 kts | 127° |
| 2026-05-05 20:21 | 47.63060 | 10.62676 | 20475 ft | 394 kts | 127° |
| 2026-05-05 20:22 | 47.61577 | 10.66106 | 21115 ft | 397 kts | 127° |
| 2026-05-05 20:22 | 47.60079 | 10.69565 | 21723 ft | 400 kts | 127° |
| 2026-05-05 20:22 | 47.58572 | 10.73039 | 22306 ft | 403 kts | 128° |
| 2026-05-05 20:22 | 47.57051 | 10.76542 | 22873 ft | 406 kts | 128° |
| 2026-05-05 20:23 | 47.55516 | 10.80073 | 23435 ft | 410 kts | 128° |
| 2026-05-05 20:23 | 47.53963 | 10.83640 | 23892 ft | 413 kts | 128° |
| 2026-05-05 20:23 | 47.52404 | 10.87219 | 24380 ft | 415 kts | 128° |
| 2026-05-05 20:23 | 47.50854 | 10.90770 | 24776 ft | 418 kts | 128° |
| 2026-05-05 20:24 | 47.49270 | 10.94394 | 25225 ft | 422 kts | 128° |
| 2026-05-05 20:24 | 47.47672 | 10.98046 | 25652 ft | 424 kts | 129° |
| 2026-05-05 20:24 | 47.46065 | 11.01716 | 26074 ft | 427 kts | 128° |
| 2026-05-05 20:24 | 47.44445 | 11.05407 | 26476 ft | 429 kts | 129° |
| 2026-05-05 20:25 | 47.42816 | 11.09117 | 26869 ft | 432 kts | 129° |
| 2026-05-05 20:25 | 47.41178 | 11.12846 | 27277 ft | 434 kts | 128° |
| 2026-05-05 20:25 | 47.39527 | 11.16596 | 27639 ft | 438 kts | 129° |
| 2026-05-05 20:25 | 47.37857 | 11.20378 | 28020 ft | 441 kts | 129° |
| 2026-05-05 20:26 | 47.36199 | 11.24128 | 28425 ft | 443 kts | 129° |
| 2026-05-05 20:26 | 47.34513 | 11.27941 | 28810 ft | 445 kts | 129° |
| 2026-05-05 20:26 | 47.32806 | 11.31777 | 29081 ft | 449 kts | 129° |
| 2026-05-05 20:26 | 47.31091 | 11.35643 | 29414 ft | 453 kts | 129° |
| 2026-05-05 20:27 | 47.29363 | 11.39540 | 29787 ft | 455 kts | 129° |
| 2026-05-05 20:27 | 47.27626 | 11.43453 | 30139 ft | 457 kts | 129° |
| 2026-05-05 20:27 | 47.25881 | 11.47377 | 30435 ft | 459 kts | 129° |
| 2026-05-05 20:27 | 47.24125 | 11.51315 | 30712 ft | 461 kts | 129° |
| 2026-05-05 20:28 | 47.22359 | 11.55269 | 31012 ft | 463 kts | 129° |
| 2026-05-05 20:28 | 47.20593 | 11.59221 | 31327 ft | 464 kts | 129° |
| 2026-05-05 20:28 | 47.18812 | 11.63196 | 31554 ft | 466 kts | 128° |
| 2026-05-05 20:28 | 47.17052 | 11.67119 | 31886 ft | 466 kts | 129° |
| 2026-05-05 20:29 | 47.15269 | 11.71088 | 32229 ft | 465 kts | 128° |
| 2026-05-05 20:29 | 47.13487 | 11.75053 | 32583 ft | 465 kts | 129° |
| 2026-05-05 20:29 | 47.11706 | 11.79012 | 32949 ft | 465 kts | 129° |
| 2026-05-05 20:29 | 47.09922 | 11.82969 | 33382 ft | 464 kts | 129° |
| 2026-05-05 20:30 | 47.08184 | 11.86965 | 33780 ft | 467 kts | 125° |
| 2026-05-05 20:30 | 47.06794 | 11.91304 | 34088 ft | 473 kts | 117° |
| 2026-05-05 20:30 | 47.05602 | 11.95772 | 34603 ft | 468 kts | 116° |
| 2026-05-05 20:30 | 47.04447 | 12.00227 | 34955 ft | 467 kts | 116° |
| 2026-05-05 20:31 | 47.03309 | 12.04622 | 35191 ft | 468 kts | 116° |
| 2026-05-05 20:31 | 47.02142 | 12.09081 | 35470 ft | 468 kts | 116° |
| 2026-05-05 20:31 | 47.00970 | 12.13513 | 35818 ft | 465 kts | 116° |
| 2026-05-05 20:31 | 46.99795 | 12.17910 | 36208 ft | 462 kts | 116° |
| 2026-05-05 20:32 | 46.98620 | 12.22273 | 36592 ft | 460 kts | 116° |
| 2026-05-05 20:32 | 46.97443 | 12.26619 | 36888 ft | 459 kts | 116° |
| 2026-05-05 20:32 | 46.96258 | 12.30974 | 36992 ft | 463 kts | 116° |
| 2026-05-05 20:33 | 46.93872 | 12.39712 | 36978 ft | 465 kts | 116° |
| 2026-05-05 20:33 | 46.91491 | 12.48436 | 36945 ft | 456 kts | 116° |
| 2026-05-05 20:34 | 46.89140 | 12.57013 | 36982 ft | 457 kts | 116° |
| 2026-05-05 20:34 | 46.86743 | 12.65703 | 36965 ft | 465 kts | 116° |
| 2026-05-05 20:35 | 46.84332 | 12.74427 | 36949 ft | 468 kts | 116° |
| 2026-05-05 20:35 | 46.81885 | 12.83258 | 36969 ft | 467 kts | 116° |
| 2026-05-05 20:36 | 46.79467 | 12.91963 | 36980 ft | 460 kts | 116° |
| 2026-05-05 20:36 | 46.77054 | 13.00602 | 36977 ft | 459 kts | 116° |
| 2026-05-05 20:37 | 46.74638 | 13.09217 | 36983 ft | 459 kts | 116° |
| 2026-05-05 20:37 | 46.72219 | 13.17812 | 36965 ft | 457 kts | 116° |
| 2026-05-05 20:38 | 46.69822 | 13.26305 | 36974 ft | 457 kts | 116° |
| 2026-05-05 20:38 | 46.67396 | 13.34868 | 37006 ft | 458 kts | 116° |
| 2026-05-05 20:39 | 46.64956 | 13.43449 | 37006 ft | 459 kts | 116° |
| 2026-05-05 20:39 | 46.62500 | 13.52053 | 36972 ft | 461 kts | 116° |
| 2026-05-05 20:40 | 46.60047 | 13.60622 | 36983 ft | 463 kts | 116° |
| 2026-05-05 20:40 | 46.57557 | 13.69287 | 36981 ft | 467 kts | 116° |
| 2026-05-05 20:41 | 46.55015 | 13.78094 | 36985 ft | 478 kts | 116° |
| 2026-05-05 20:41 | 46.52416 | 13.87071 | 36964 ft | 486 kts | 117° |
| 2026-05-05 20:42 | 46.49787 | 13.96122 | 36985 ft | 493 kts | 117° |
| 2026-05-05 20:42 | 46.47110 | 14.05313 | 36968 ft | 493 kts | 117° |
| 2026-05-05 20:43 | 46.44450 | 14.14418 | 36956 ft | 487 kts | 117° |
| 2026-05-05 20:43 | 46.41801 | 14.23441 | 36953 ft | 486 kts | 116° |
| 2026-05-05 20:44 | 46.39162 | 14.32390 | 36994 ft | 486 kts | 116° |
| 2026-05-05 20:44 | 46.36497 | 14.41395 | 36999 ft | 487 kts | 116° |
| 2026-05-05 20:45 | 46.32478 | 14.54919 | 36994 ft | 488 kts | 116° |
| 2026-05-05 20:45 | 46.29795 | 14.63910 | 37000 ft | 487 kts | 116° |
| 2026-05-05 20:46 | 46.27123 | 14.72829 | 36994 ft | 487 kts | 116° |
| 2026-05-05 20:46 | 46.24424 | 14.81801 | 36998 ft | 487 kts | 116° |
| 2026-05-05 20:47 | 46.21717 | 14.90770 | 36984 ft | 487 kts | 116° |
| 2026-05-05 20:47 | 46.19010 | 14.99712 | 36976 ft | 485 kts | 115° |
| 2026-05-05 20:48 | 46.16302 | 15.08625 | 36972 ft | 484 kts | 115° |
| 2026-05-05 20:48 | 46.13610 | 15.17452 | 36978 ft | 484 kts | 115° |
| 2026-05-05 20:49 | 46.10892 | 15.26334 | 36990 ft | 484 kts | 116° |
| 2026-05-05 20:49 | 46.08171 | 15.35196 | 36989 ft | 484 kts | 116° |
| 2026-05-05 20:50 | 46.05902 | 15.42560 | 36994 ft | 484 kts | 116° |
| 2026-05-05 20:50 | 46.02718 | 15.52861 | 36991 ft | 485 kts | 116° |
| 2026-05-05 20:51 | 45.99972 | 15.61714 | 36991 ft | 485 kts | 116° |
| 2026-05-05 20:51 | 45.97208 | 15.70569 | 36994 ft | 485 kts | 117° |
| 2026-05-05 20:52 | 45.94162 | 15.79206 | 36996 ft | 484 kts | 120° |
| 2026-05-05 20:52 | 45.90984 | 15.87660 | 36996 ft | 484 kts | 121° |
| 2026-05-05 20:53 | 45.87787 | 15.96174 | 36984 ft | 485 kts | 120° |
| 2026-05-05 20:53 | 45.84619 | 16.04688 | 36993 ft | 483 kts | 120° |
| 2026-05-05 20:54 | 45.81995 | 16.11755 | 36981 ft | 483 kts | 120° |
| 2026-05-05 20:54 | 45.78831 | 16.20262 | 36998 ft | 484 kts | 120° |
| 2026-05-05 20:55 | 45.75137 | 16.30156 | 36988 ft | 485 kts | 120° |
| 2026-05-05 20:55 | 45.72465 | 16.37287 | 37000 ft | 485 kts | 120° |
| 2026-05-05 20:56 | 45.69291 | 16.45734 | 36994 ft | 485 kts | 120° |
| 2026-05-05 20:56 | 45.66087 | 16.54233 | 36996 ft | 485 kts | 120° |
| 2026-05-05 20:57 | 45.62356 | 16.64097 | 36985 ft | 485 kts | 120° |
| 2026-05-05 20:57 | 45.59662 | 16.71198 | 36983 ft | 485 kts | 120° |
| 2026-05-05 20:58 | 45.56462 | 16.79606 | 36989 ft | 485 kts | 120° |
| 2026-05-05 20:58 | 45.53240 | 16.88050 | 36996 ft | 484 kts | 121° |
| 2026-05-05 20:59 | 45.50014 | 16.96475 | 36986 ft | 484 kts | 120° |
| 2026-05-05 20:59 | 45.46787 | 17.04880 | 36993 ft | 483 kts | 120° |
| 2026-05-05 21:00 | 45.43583 | 17.13200 | 36992 ft | 482 kts | 121° |
| 2026-05-05 21:00 | 45.40353 | 17.21560 | 36996 ft | 482 kts | 121° |
| 2026-05-05 21:01 | 45.37122 | 17.29896 | 36985 ft | 481 kts | 121° |
| 2026-05-05 21:01 | 45.33883 | 17.38228 | 36987 ft | 481 kts | 121° |
| 2026-05-05 21:02 | 45.30639 | 17.46549 | 36990 ft | 481 kts | 121° |
| 2026-05-05 21:02 | 45.27412 | 17.54803 | 36990 ft | 481 kts | 121° |
| 2026-05-05 21:03 | 45.24154 | 17.63110 | 36990 ft | 482 kts | 121° |
| 2026-05-05 21:03 | 45.20887 | 17.71415 | 36989 ft | 482 kts | 121° |
| 2026-05-05 21:04 | 45.17611 | 17.79719 | 36987 ft | 483 kts | 121° |
| 2026-05-05 21:04 | 45.14348 | 17.87963 | 36979 ft | 483 kts | 121° |
| 2026-05-05 21:05 | 45.11054 | 17.96262 | 36988 ft | 484 kts | 121° |
| 2026-05-05 21:05 | 45.07742 | 18.04582 | 36990 ft | 486 kts | 121° |
| 2026-05-05 21:06 | 45.04416 | 18.12913 | 36992 ft | 487 kts | 121° |
| 2026-05-05 21:06 | 45.01076 | 18.21254 | 36985 ft | 488 kts | 121° |
| 2026-05-05 21:07 | 44.97747 | 18.29542 | 36976 ft | 489 kts | 121° |
| 2026-05-05 21:07 | 44.94380 | 18.37898 | 36990 ft | 490 kts | 121° |
| 2026-05-05 21:08 | 44.91000 | 18.46264 | 36982 ft | 491 kts | 121° |
| 2026-05-05 21:08 | 44.87608 | 18.54633 | 36982 ft | 492 kts | 121° |
| 2026-05-05 21:09 | 44.84230 | 18.62945 | 36981 ft | 492 kts | 121° |
| 2026-05-05 21:09 | 44.80818 | 18.71314 | 36976 ft | 493 kts | 121° |
| 2026-05-05 21:10 | 44.77394 | 18.79688 | 36986 ft | 493 kts | 121° |
| 2026-05-05 21:10 | 44.73965 | 18.88049 | 36985 ft | 494 kts | 121° |
| 2026-05-05 21:11 | 44.70527 | 18.96407 | 36985 ft | 494 kts | 121° |
| 2026-05-05 21:11 | 44.67104 | 19.04705 | 36980 ft | 494 kts | 121° |
| 2026-05-05 21:12 | 44.63654 | 19.13043 | 36985 ft | 494 kts | 121° |
| 2026-05-05 21:12 | 44.60201 | 19.21366 | 36973 ft | 494 kts | 121° |
| 2026-05-05 21:13 | 44.56739 | 19.29683 | 36986 ft | 494 kts | 121° |
| 2026-05-05 21:13 | 44.53292 | 19.37941 | 36983 ft | 494 kts | 121° |
| 2026-05-05 21:14 | 44.49816 | 19.46246 | 36979 ft | 494 kts | 121° |
| 2026-05-05 21:14 | 44.46333 | 19.54542 | 36973 ft | 494 kts | 121° |
| 2026-05-05 21:15 | 44.42841 | 19.62837 | 36999 ft | 495 kts | 121° |
| 2026-05-05 21:15 | 44.39366 | 19.71067 | 36999 ft | 495 kts | 121° |
| 2026-05-05 21:16 | 44.35837 | 19.79334 | 36997 ft | 495 kts | 122° |
| 2026-05-05 21:16 | 44.32234 | 19.87529 | 37001 ft | 495 kts | 122° |
| 2026-05-05 21:17 | 44.28618 | 19.95705 | 36996 ft | 495 kts | 122° |
| 2026-05-05 21:17 | 44.25006 | 20.03879 | 37002 ft | 495 kts | 122° |
| 2026-05-05 21:18 | 44.21422 | 20.11987 | 37009 ft | 495 kts | 122° |
| 2026-05-05 21:18 | 44.17809 | 20.20144 | 37007 ft | 494 kts | 122° |
| 2026-05-05 21:19 | 44.14193 | 20.28284 | 37006 ft | 494 kts | 122° |
| 2026-05-05 21:19 | 44.10560 | 20.36437 | 36667 ft | 500 kts | 122° |
| 2026-05-05 21:20 | 44.08721 | 20.40554 | 36339 ft | 501 kts | 122° |
| 2026-05-05 21:20 | 44.06887 | 20.44656 | 35929 ft | 498 kts | 122° |
| 2026-05-05 21:20 | 44.05085 | 20.48679 | 35522 ft | 495 kts | 122° |
| 2026-05-05 21:20 | 44.03269 | 20.52730 | 35118 ft | 495 kts | 122° |
| 2026-05-05 21:21 | 44.01443 | 20.56795 | 34703 ft | 496 kts | 122° |
| 2026-05-05 21:21 | 43.99613 | 20.60863 | 34294 ft | 497 kts | 122° |
| 2026-05-05 21:21 | 43.97786 | 20.64922 | 33831 ft | 494 kts | 122° |
| 2026-05-05 21:21 | 43.95975 | 20.68938 | 33363 ft | 487 kts | 122° |
| 2026-05-05 21:22 | 43.94194 | 20.72881 | 32949 ft | 478 kts | 122° |
| 2026-05-05 21:22 | 43.92442 | 20.76756 | 32547 ft | 470 kts | 122° |
| 2026-05-05 21:22 | 43.90715 | 20.80571 | 32167 ft | 465 kts | 122° |
| 2026-05-05 21:22 | 43.89025 | 20.84296 | 31770 ft | 461 kts | 122° |
| 2026-05-05 21:23 | 43.87321 | 20.88050 | 31385 ft | 458 kts | 122° |
| 2026-05-05 21:23 | 43.85632 | 20.91767 | 30995 ft | 454 kts | 123° |
| 2026-05-05 21:23 | 43.83954 | 20.95452 | 30625 ft | 451 kts | 123° |
| 2026-05-05 21:23 | 43.82286 | 20.99113 | 30262 ft | 451 kts | 123° |
| 2026-05-05 21:24 | 43.80577 | 21.02855 | 29868 ft | 468 kts | 123° |
| 2026-05-05 21:24 | 43.78809 | 21.06724 | 29416 ft | 480 kts | 122° |
| 2026-05-05 21:24 | 43.77029 | 21.10614 | 28954 ft | 476 kts | 122° |
| 2026-05-05 21:24 | 43.75286 | 21.14420 | 28535 ft | 473 kts | 123° |
| 2026-05-05 21:25 | 43.73529 | 21.18250 | 28110 ft | 470 kts | 123° |
| 2026-05-05 21:25 | 43.71781 | 21.22057 | 27678 ft | 468 kts | 123° |
| 2026-05-05 21:25 | 43.70036 | 21.25850 | 27252 ft | 466 kts | 123° |
| 2026-05-05 21:25 | 43.68303 | 21.29615 | 26832 ft | 464 kts | 122° |
| 2026-05-05 21:26 | 43.66572 | 21.33367 | 26408 ft | 462 kts | 122° |
| 2026-05-05 21:26 | 43.64850 | 21.37098 | 25996 ft | 460 kts | 123° |
| 2026-05-05 21:26 | 43.63133 | 21.40811 | 25586 ft | 458 kts | 123° |
| 2026-05-05 21:26 | 43.61447 | 21.44455 | 25175 ft | 455 kts | 123° |
| 2026-05-05 21:27 | 43.59747 | 21.48124 | 24762 ft | 452 kts | 123° |
| 2026-05-05 21:27 | 43.58058 | 21.51764 | 24359 ft | 449 kts | 123° |
| 2026-05-05 21:27 | 43.56382 | 21.55371 | 23947 ft | 445 kts | 123° |
| 2026-05-05 21:27 | 43.54718 | 21.58948 | 23552 ft | 442 kts | 122° |
| 2026-05-05 21:28 | 43.53062 | 21.62503 | 23078 ft | 439 kts | 123° |
| 2026-05-05 21:28 | 43.51422 | 21.66019 | 22645 ft | 434 kts | 123° |
| 2026-05-05 21:28 | 43.49799 | 21.69496 | 22249 ft | 429 kts | 123° |
| 2026-05-05 21:28 | 43.48190 | 21.72939 | 21851 ft | 425 kts | 123° |
| 2026-05-05 21:29 | 43.46614 | 21.76306 | 21456 ft | 422 kts | 123° |
| 2026-05-05 21:29 | 43.45030 | 21.79688 | 21057 ft | 419 kts | 123° |
| 2026-05-05 21:29 | 43.43456 | 21.83044 | 20674 ft | 416 kts | 123° |
| 2026-05-05 21:29 | 43.41891 | 21.86375 | 20294 ft | 414 kts | 123° |
| 2026-05-05 21:30 | 43.40334 | 21.89688 | 19908 ft | 411 kts | 123° |
| 2026-05-05 21:30 | 43.38784 | 21.92982 | 19529 ft | 409 kts | 123° |
| 2026-05-05 21:30 | 43.37240 | 21.96258 | 19158 ft | 407 kts | 123° |
| 2026-05-05 21:30 | 43.35702 | 21.99519 | 18775 ft | 405 kts | 123° |
| 2026-05-05 21:31 | 43.34193 | 22.02715 | 18406 ft | 403 kts | 123° |
| 2026-05-05 21:31 | 43.32671 | 22.05935 | 17985 ft | 401 kts | 123° |
| 2026-05-05 21:31 | 43.31159 | 22.09129 | 17578 ft | 397 kts | 123° |
| 2026-05-05 21:31 | 43.29661 | 22.12292 | 17203 ft | 393 kts | 123° |
| 2026-05-05 21:32 | 43.28176 | 22.15423 | 16835 ft | 390 kts | 123° |
| 2026-05-05 21:32 | 43.26700 | 22.18531 | 16462 ft | 387 kts | 123° |
| 2026-05-05 21:32 | 43.25236 | 22.21612 | 16093 ft | 384 kts | 123° |
| 2026-05-05 21:32 | 43.23779 | 22.24674 | 15733 ft | 382 kts | 123° |
| 2026-05-05 21:33 | 43.22353 | 22.27668 | 15390 ft | 379 kts | 123° |
| 2026-05-05 21:33 | 43.20915 | 22.30684 | 15036 ft | 377 kts | 123° |
| 2026-05-05 21:33 | 43.19488 | 22.33676 | 14686 ft | 374 kts | 123° |
| 2026-05-05 21:33 | 43.18067 | 22.36649 | 14336 ft | 372 kts | 123° |
| 2026-05-05 21:34 | 43.16657 | 22.39600 | 13989 ft | 369 kts | 123° |
| 2026-05-05 21:34 | 43.15254 | 22.42531 | 13614 ft | 366 kts | 123° |
| 2026-05-05 21:34 | 43.13861 | 22.45440 | 13235 ft | 364 kts | 123° |
| 2026-05-05 21:34 | 43.12477 | 22.48326 | 12886 ft | 362 kts | 123° |
| 2026-05-05 21:35 | 43.11096 | 22.51204 | 12542 ft | 361 kts | 123° |
| 2026-05-05 21:35 | 43.09738 | 22.54030 | 12191 ft | 360 kts | 123° |
| 2026-05-05 21:35 | 43.08365 | 22.56886 | 11838 ft | 358 kts | 124° |
| 2026-05-05 21:35 | 43.06998 | 22.59726 | 11488 ft | 357 kts | 124° |
| 2026-05-05 21:36 | 43.05634 | 22.62557 | 11140 ft | 356 kts | 124° |
| 2026-05-05 21:36 | 43.04273 | 22.65377 | 10797 ft | 355 kts | 124° |
| 2026-05-05 21:36 | 43.02916 | 22.68190 | 10460 ft | 354 kts | 124° |
| 2026-05-05 21:36 | 43.01564 | 22.70989 | 10161 ft | 352 kts | 124° |
| 2026-05-05 21:37 | 43.00225 | 22.73759 | 9975 ft | 347 kts | 124° |
| 2026-05-05 21:37 | 42.98890 | 22.76517 | 9596 ft | 348 kts | 124° |
| 2026-05-05 21:37 | 42.97571 | 22.79237 | 9265 ft | 348 kts | 124° |
| 2026-05-05 21:37 | 42.96168 | 22.81869 | 9068 ft | 334 kts | 129° |
| 2026-05-05 21:38 | 42.94729 | 22.84266 | 8784 ft | 319 kts | 130° |
| 2026-05-05 21:38 | 42.93320 | 22.86542 | 8453 ft | 308 kts | 131° |
| 2026-05-05 21:38 | 42.91975 | 22.88710 | 8180 ft | 291 kts | 131° |
| 2026-05-05 21:38 | 42.90708 | 22.90763 | 7861 ft | 276 kts | 131° |
| 2026-05-05 21:39 | 42.89497 | 22.92735 | 7574 ft | 267 kts | 131° |
| 2026-05-05 21:39 | 42.88321 | 22.94658 | 7319 ft | 260 kts | 131° |
| 2026-05-05 21:39 | 42.87193 | 22.96506 | 7076 ft | 256 kts | 130° |
| 2026-05-05 21:39 | 42.86048 | 22.98385 | 6837 ft | 259 kts | 130° |
| 2026-05-05 21:40 | 42.84887 | 23.00289 | 6562 ft | 262 kts | 130° |
| 2026-05-05 21:40 | 42.83730 | 23.02189 | 6421 ft | 259 kts | 130° |
| 2026-05-05 21:40 | 42.82586 | 23.04068 | 6292 ft | 256 kts | 130° |
| 2026-05-05 21:40 | 42.81452 | 23.05928 | 6182 ft | 254 kts | 130° |
| 2026-05-05 21:41 | 42.80327 | 23.07775 | 6085 ft | 253 kts | 130° |
| 2026-05-05 21:41 | 42.79205 | 23.09615 | 5981 ft | 251 kts | 130° |
| 2026-05-05 21:41 | 42.78103 | 23.11423 | 5810 ft | 247 kts | 130° |
| 2026-05-05 21:41 | 42.77013 | 23.13210 | 5562 ft | 244 kts | 130° |
| 2026-05-05 21:42 | 42.75951 | 23.14950 | 5323 ft | 241 kts | 130° |
| 2026-05-05 21:42 | 42.74885 | 23.16695 | 5088 ft | 239 kts | 130° |
| 2026-05-05 21:42 | 42.73826 | 23.18426 | 4841 ft | 235 kts | 130° |
| 2026-05-05 21:42 | 42.72812 | 23.20084 | 4604 ft | 221 kts | 130° |
| 2026-05-05 21:43 | 42.71853 | 23.21650 | 4357 ft | 209 kts | 130° |
| 2026-05-05 21:43 | 42.70979 | 23.23139 | 4179 ft | 192 kts | 121° |
| 2026-05-05 21:43 | 42.70678 | 23.24814 | 4014 ft | 184 kts | 94° |
| 2026-05-05 21:43 | 42.70586 | 23.26556 | 3715 ft | 182 kts | 96° |
| 2026-05-05 21:44 | 42.70479 | 23.28231 | 3458 ft | 178 kts | 96° |
| 2026-05-05 21:44 | 42.70376 | 23.29885 | 3255 ft | 171 kts | 96° |
| 2026-05-05 21:44 | 42.70276 | 23.31497 | 3002 ft | 171 kts | 96° |
| 2026-05-05 21:44 | 42.70177 | 23.33108 | 2781 ft | 172 kts | 96° |
| 2026-05-05 21:45 | 42.70087 | 23.34673 | 2683 ft | 159 kts | 96° |
| 2026-05-05 21:45 | 42.69992 | 23.36142 | 2404 ft | 154 kts | 97° |
| 2026-05-05 21:45 | 42.69901 | 23.37597 | 2168 ft | 157 kts | 96° |
| 2026-05-05 21:45 | 42.69814 | 23.39091 | 1922 ft | 157 kts | 96° |
| 2026-05-05 21:46 | 42.69726 | 23.40483 | 1760 ft | 139 kts | 96° |
| 2026-05-05 21:46 | 42.69654 | 23.41636 | 1751 ft | 102 kts | 94° |
| 2026-05-05 21:46 | 42.69600 | 23.42406 | 1745 ft | 70 kts | 102° |
| 2026-05-05 21:46 | 42.69410 | 23.42737 | 1751 ft | 27 kts | 232° |
| 2026-05-05 21:47 | 42.69410 | 23.42507 | 1744 ft | 24 kts | 272° |
| 2026-05-05 21:47 | 42.69423 | 23.42290 | 1746 ft | 23 kts | 275° |
| 2026-05-05 21:47 | 42.69438 | 23.42081 | 1746 ft | 22 kts | 275° |
| 2026-05-05 21:47 | 42.69451 | 23.41877 | 1742 ft | 21 kts | 274° |
| 2026-05-05 21:48 | 42.69459 | 23.41681 | 1749 ft | 21 kts | 273° |
| 2026-05-05 21:48 | 42.69408 | 23.41530 | 1746 ft | 20 kts | 181° |
| 2026-05-05 21:48 | 42.69271 | 23.41518 | 1747 ft | 19 kts | 191° |
| 2026-05-05 21:48 | 42.69209 | 23.41433 | 1747 ft | 8 kts | 257° |
| 2026-05-05 21:49 | 42.69202 | 23.41403 | 1746 ft | 0 kts | 251° |